createdAt,value
2018-04-06T00:08:34.007Z,56.0
2018-04-06T00:25:19.667Z,56.0
2018-04-06T00:42:06.938Z,56.0
2018-04-06T00:58:53.047Z,55.6
2018-04-06T01:15:40.136Z,55.6
2018-04-06T01:32:26.220Z,55.6
2018-04-06T01:49:13.276Z,55.6
2018-04-06T02:06:00.227Z,55.6
2018-04-06T02:22:46.623Z,55.2
2018-04-06T02:39:33.436Z,54.8
2018-04-06T02:56:19.547Z,54.8
2018-04-06T03:13:06.468Z,54.8
2018-04-06T03:29:52.468Z,54.8
2018-04-06T03:46:39.326Z,54.8
2018-04-06T04:03:25.119Z,54.8
2018-04-06T04:20:11.750Z,54.4
2018-04-06T04:36:58.162Z,54.4
2018-04-06T04:53:44.182Z,54.4
2018-04-06T05:10:31.761Z,54.0
2018-04-06T05:27:17.464Z,54.0
2018-04-06T05:44:03.498Z,54.0
2018-04-06T06:00:50.928Z,54.0
2018-04-06T06:17:36.718Z,53.6
2018-04-06T06:34:24.668Z,53.2
2018-04-06T06:51:11.012Z,52.8
2018-04-06T07:07:59.274Z,52.4
2018-04-06T07:24:46.784Z,52.4
2018-04-06T07:41:33.944Z,52.4
2018-04-06T07:58:23.345Z,52.0
2018-04-06T08:15:11.541Z,51.6
2018-04-06T08:31:58.459Z,52.0
2018-04-06T08:48:47.767Z,50.4
2018-04-06T09:05:36.997Z,50.0
2018-04-06T09:22:24.258Z,50.0
2018-04-06T09:39:13.712Z,50.0
2018-04-06T09:56:02.267Z,50.0
2018-04-06T10:12:51.142Z,50.0
2018-04-06T10:29:40.016Z,50.0
2018-04-06T10:46:30.060Z,49.6
2018-04-06T11:03:20.287Z,49.6
2018-04-06T11:20:08.801Z,49.6
2018-04-06T11:36:58.158Z,49.2
2018-04-06T11:53:48.118Z,50.0
2018-04-06T12:10:38.204Z,49.6
2018-04-06T12:27:28.221Z,50.8
2018-04-06T12:34:12.671Z,52.8
2018-04-06T12:40:57.720Z,54.8
2018-04-06T12:57:46.801Z,55.6
2018-04-06T13:14:36.603Z,56.0
2018-04-06T13:31:31.826Z,55.2
2018-04-06T13:48:17.843Z,56.4
2018-04-06T14:05:05.074Z,57.2
2018-04-06T14:21:55.232Z,58.8
2018-04-06T14:38:45.060Z,60.0
2018-04-06T14:55:35.035Z,60.4
2018-04-06T15:12:25.456Z,60.4
2018-04-06T15:29:14.743Z,60.0
2018-04-06T15:46:04.605Z,60.0
2018-04-06T16:02:54.589Z,60.0
2018-04-06T16:19:44.465Z,60.4
2018-04-06T16:36:34.303Z,61.2
2018-04-06T16:53:24.241Z,61.6
2018-04-06T17:10:13.567Z,61.2
2018-04-06T17:27:03.389Z,61.6
2018-04-06T17:43:53.239Z,61.6
2018-04-06T18:00:42.668Z,62.0
2018-04-06T18:17:31.805Z,62.0
2018-04-06T18:34:25.112Z,62.0
2018-04-06T18:51:17.323Z,62.0
2018-04-06T19:08:00.918Z,62.0
2018-04-06T19:24:50.999Z,62.0
2018-04-06T19:41:39.488Z,62.4
2018-04-06T19:58:27.206Z,62.4
2018-04-06T20:15:15.812Z,62.4
2018-04-06T20:32:05.456Z,62.4
2018-04-06T20:48:52.004Z,62.4
2018-04-06T21:05:42.127Z,62.4
2018-04-06T21:22:27.839Z,62.4
2018-04-06T21:39:15.674Z,61.6
2018-04-06T21:56:03.703Z,61.2
2018-04-06T22:12:52.129Z,61.2
2018-04-06T22:29:42.806Z,61.2
2018-04-06T22:46:27.336Z,60.8
2018-04-06T23:03:14.701Z,60.8
2018-04-06T23:20:02.154Z,60.0
2018-04-06T23:36:49.688Z,60.0
2018-04-06T23:53:37.566Z,60.0
